Time;durP1;ratioP1;P1;durP2;ratioP2;P2;SDS_P1;SDS_P2;PMS_P1;PMS_P2;Temp;Humidity;BMP_temperature;BMP_pressure;BME280_temperature;BME280_humidity;BME280_pressure;Samples;Min_cycle;Max_cycle;Signal;HPM_P1;HPM_P2
2022/09/14 00:00:23;;;;;;;5.63;3.53;;;19.30;99.90;;;;;;5072507;28;20058;-82
2022/09/14 00:02:49;;;;;;;9.23;3.60;;;19.30;99.90;;;;;;5072785;28;20036;-83
2022/09/14 00:05:15;;;;;;;5.78;3.70;;;19.30;99.90;;;;;;5076432;28;20084;-84
2022/09/14 00:07:40;;;;;;;6.57;4.10;;;19.30;99.90;;;;;;5073289;28;20627;-84
2022/09/14 00:10:06;;;;;;;4.75;2.90;;;19.30;99.90;;;;;;5071291;28;20405;-86
2022/09/14 00:12:32;;;;;;;4.93;3.28;;;19.30;99.90;;;;;;5072914;28;20104;-85
2022/09/14 00:14:58;;;;;;;8.80;4.05;;;19.30;99.90;;;;;;5071954;28;20090;-74
2022/09/14 00:17:23;;;;;;;4.32;2.92;;;19.30;99.90;;;;;;5074907;28;20063;-83
2022/09/14 00:19:49;;;;;;;4.07;2.78;;;19.20;99.90;;;;;;5084444;28;20026;-83
2022/09/14 00:22:15;;;;;;;7.60;3.40;;;19.20;99.90;;;;;;5091119;28;20149;-82
2022/09/14 00:24:40;;;;;;;4.55;3.58;;;19.20;99.90;;;;;;5092119;28;20028;-83
2022/09/14 00:27:06;;;;;;;5.35;3.42;;;19.20;99.90;;;;;;5064675;28;20066;-83
2022/09/14 00:29:32;;;;;;;6.35;3.47;;;19.20;99.90;;;;;;5072105;28;20071;-82
2022/09/14 00:31:58;;;;;;;9.77;3.72;;;19.20;99.90;;;;;;5078566;28;20032;-75
2022/09/14 00:34:23;;;;;;;10.60;3.83;;;19.20;99.90;;;;;;5073752;28;20035;-82
2022/09/14 00:36:50;;;;;;;7.30;3.60;;;19.20;99.90;;;;;;5072227;28;20051;-83
2022/09/14 00:39:17;;;;;;;6.20;3.80;;;19.30;99.90;;;;;;5071401;28;20037;-82
2022/09/14 00:41:45;;;;;;;6.32;3.70;;;19.30;99.90;;;;;;5071520;28;20025;-84
2022/09/14 00:44:11;;;;;;;4.55;3.38;;;19.30;99.90;;;;;;5070307;28;20123;-84
2022/09/14 00:46:39;;;;;;;5.22;3.05;;;19.30;99.90;;;;;;5078013;28;20103;-84
2022/09/14 00:49:22;;;;;;;4.85;3.30;;;19.30;99.90;;;;;;5096559;28;20035;-83
2022/09/14 00:52:24;;;;;;;7.68;3.38;;;19.40;99.90;;;;;;5096786;28;20032;-84
2022/09/14 00:54:59;;;;;;;4.70;2.90;;;19.40;99.90;;;;;;5074264;28;20469;-83
2022/09/14 00:57:29;;;;;;;4.63;2.63;;;19.40;99.90;;;;;;5064735;28;20028;-85
2022/09/14 00:59:55;;;;;;;3.90;2.47;;;19.50;99.90;;;;;;5077408;28;20036;-85
2022/09/14 01:02:24;;;;;;;3.83;2.30;;;19.50;99.90;;;;;;5070902;28;20561;-85
2022/09/14 01:04:51;;;;;;;5.50;2.83;;;19.50;99.90;;;;;;5071942;28;20021;-84
2022/09/14 01:07:20;;;;;;;6.22;2.38;;;19.50;99.90;;;;;;5071784;28;20070;-84
2022/09/14 01:09:56;;;;;;;2.63;2.10;;;19.50;99.90;;;;;;5073689;28;20081;-85
2022/09/14 01:12:48;;;;;;;4.93;2.65;;;19.50;99.90;;;;;;5073297;28;20056;-85
2022/09/14 01:15:26;;;;;;;5.13;3.00;;;19.50;99.90;;;;;;5081859;28;20029;-82
2022/09/14 01:18:27;;;;;;;6.18;2.42;;;19.50;99.90;;;;;;5078192;28;20071;-81
2022/09/14 01:20:59;;;;;;;6.53;3.00;;;19.50;99.90;;;;;;5009322;28;20376;-82
2022/09/14 01:23:43;;;;;;;5.50;2.90;;;19.40;99.90;;;;;;5064782;28;20044;-83
2022/09/14 01:26:27;;;;;;;4.75;2.47;;;19.40;99.90;;;;;;5081016;28;20021;-84
2022/09/14 01:29:11;;;;;;;2.85;2.05;;;19.30;99.90;;;;;;5073071;28;20040;-84
2022/09/14 01:31:53;;;;;;;5.50;1.92;;;19.40;99.90;;;;;;5067605;28;20024;-84
2022/09/14 01:34:49;;;;;;;12.23;2.83;;;19.50;99.90;;;;;;5081588;28;20025;-78
2022/09/14 01:37:24;;;;;;;9.88;3.30;;;19.40;99.90;;;;;;5067487;28;20119;-79
2022/09/14 01:40:03;;;;;;;7.60;2.90;;;18.70;99.90;;;;;;5091493;28;20036;-80
2022/09/14 01:42:31;;;;;;;6.55;3.30;;;18.30;99.90;;;;;;5079765;28;20481;-78
2022/09/14 01:45:00;;;;;;;7.10;2.53;;;18.00;99.90;;;;;;5086354;28;20047;-80
2022/09/14 01:47:40;;;;;;;7.68;2.88;;;17.80;99.90;;;;;;5088526;28;20071;-80
2022/09/14 01:50:10;;;;;;;11.30;2.53;;;17.70;99.90;;;;;;5081996;28;20459;-79
2022/09/14 01:52:44;;;;;;;14.55;4.20;;;17.60;99.90;;;;;;5086353;28;20103;-79
2022/09/14 01:55:17;;;;;;;8.48;2.70;;;17.50;99.90;;;;;;5083211;28;20032;-80
2022/09/14 01:57:51;;;;;;;10.75;3.20;;;17.50;99.90;;;;;;5081888;28;20032;-79
2022/09/14 02:00:19;;;;;;;6.78;2.47;;;17.40;99.90;;;;;;5090923;28;20052;-79
2022/09/14 02:03:04;;;;;;;12.30;3.33;;;17.40;99.90;;;;;;5087802;28;20031;-80
2022/09/14 02:05:37;;;;;;;5.68;2.42;;;17.40;99.90;;;;;;5089419;28;20081;-79
2022/09/14 02:08:03;;;;;;;12.95;3.15;;;17.40;99.90;;;;;;5089435;28;20063;-74
2022/09/14 02:10:29;;;;;;;8.45;3.00;;;17.50;99.90;;;;;;5074378;28;20035;-79
2022/09/14 02:12:55;;;;;;;9.30;2.90;;;17.40;99.90;;;;;;5091341;28;20424;-82
2022/09/14 02:15:25;;;;;;;8.27;3.22;;;17.40;99.90;;;;;;5090154;28;20031;-80
2022/09/14 02:17:52;;;;;;;5.70;2.80;;;17.50;99.90;;;;;;5085130;28;20038;-79
2022/09/14 02:20:30;;;;;;;9.32;3.20;;;17.50;99.90;;;;;;5054741;28;20098;-79
2022/09/14 02:22:55;;;;;;;3.90;2.70;;;17.50;99.90;;;;;;5057535;28;20081;-79
2022/09/14 02:25:21;;;;;;;4.63;2.90;;;17.50;99.90;;;;;;5082294;28;20033;-79
2022/09/14 02:27:47;;;;;;;8.02;3.22;;;17.50;99.90;;;;;;5088934;28;20393;-79
2022/09/14 02:30:15;;;;;;;6.85;3.25;;;17.50;99.90;;;;;;5086676;28;20028;-78
2022/09/14 02:32:52;;;;;;;9.77;3.55;;;17.50;99.90;;;;;;5093670;28;20067;-80
2022/09/14 02:35:34;;;;;;;11.07;3.53;;;17.50;99.90;;;;;;5093182;28;20028;-78
2022/09/14 02:38:26;;;;;;;5.30;3.30;;;17.50;99.90;;;;;;5094025;28;20032;-77
2022/09/14 02:41:01;;;;;;;6.97;3.65;;;17.50;99.90;;;;;;5093963;28;20024;-78
2022/09/14 02:43:39;;;;;;;8.15;3.53;;;17.50;99.90;;;;;;5079257;27;20071;-79
2022/09/14 02:46:05;;;;;;;6.85;3.10;;;17.50;99.90;;;;;;5073196;28;20473;-76
2022/09/14 02:48:37;;;;;;;9.32;3.80;;;17.50;99.90;;;;;;5074707;28;20050;-83
2022/09/14 02:51:25;;;;;;;5.55;3.40;;;17.50;99.90;;;;;;5073793;28;20072;-79
2022/09/14 02:54:13;;;;;;;8.50;3.95;;;17.50;99.90;;;;;;5090154;28;20138;-82
2022/09/14 02:56:39;;;;;;;6.05;3.88;;;17.50;99.90;;;;;;5074584;28;20044;-82
2022/09/14 02:59:04;;;;;;;6.10;3.60;;;17.50;99.90;;;;;;5074287;28;20417;-75
2022/09/14 03:01:30;;;;;;;6.50;3.70;;;17.40;99.90;;;;;;5070931;28;20032;-83
2022/09/14 03:03:55;;;;;;;8.10;3.78;;;17.40;99.90;;;;;;5075381;28;20508;-84
2022/09/14 03:06:21;;;;;;;4.72;3.67;;;17.30;99.90;;;;;;5078258;28;20036;-82
2022/09/14 03:08:48;;;;;;;7.18;3.83;;;17.30;99.90;;;;;;5080321;28;20413;-83
2022/09/14 03:11:13;;;;;;;8.55;3.88;;;17.30;99.90;;;;;;5085724;28;20027;-80
2022/09/14 03:13:39;;;;;;;6.10;4.20;;;17.30;99.90;;;;;;5075481;28;20032;-80
2022/09/14 03:16:16;;;;;;;8.70;4.68;;;17.30;99.90;;;;;;5073517;28;20476;-73
2022/09/14 03:18:41;;;;;;;7.90;5.10;;;17.30;99.90;;;;;;5074463;28;20036;-80
2022/09/14 03:21:11;;;;;;;7.25;4.60;;;17.30;99.90;;;;;;5082071;28;20484;-73
2022/09/14 03:23:42;;;;;;;6.80;4.82;;;17.30;99.90;;;;;;5091982;28;20419;-83
2022/09/14 03:26:11;;;;;;;6.25;4.22;;;17.20;99.90;;;;;;5091583;28;20028;-74
2022/09/14 03:28:37;;;;;;;7.65;4.68;;;17.30;99.90;;;;;;5090820;28;20040;-87
2022/09/14 03:31:04;;;;;;;10.90;4.95;;;17.20;99.90;;;;;;5100916;28;20048;-86
2022/09/14 03:33:30;;;;;;;7.50;4.80;;;17.20;99.90;;;;;;5108309;28;20035;-76
2022/09/14 03:35:56;;;;;;;10.27;5.00;;;17.20;99.90;;;;;;5091139;28;20037;-80
2022/09/14 03:38:23;;;;;;;10.60;5.22;;;17.30;99.90;;;;;;5068561;28;20035;-80
2022/09/14 03:40:49;;;;;;;9.48;5.10;;;17.30;99.90;;;;;;5079091;28;20465;-81
2022/09/14 03:43:14;;;;;;;7.57;5.03;;;17.30;99.90;;;;;;5079563;28;20050;-80
2022/09/14 03:45:41;;;;;;;15.18;5.38;;;17.30;99.90;;;;;;5101591;28;20071;-78
2022/09/14 03:48:06;;;;;;;6.35;4.50;;;17.20;99.90;;;;;;5103438;28;20035;-72
2022/09/14 03:50:32;;;;;;;8.95;4.35;;;17.20;99.90;;;;;;5130220;28;20123;-80
2022/09/14 03:52:58;;;;;;;5.57;4.95;;;17.30;99.90;;;;;;5102011;28;20020;-79
2022/09/14 03:55:24;;;;;;;12.63;7.75;;;17.20;99.90;;;;;;5126916;28;20032;-79
2022/09/14 03:57:56;;;;;;;10.85;8.05;;;17.20;99.90;;;;;;5116098;28;20497;-80
2022/09/14 04:00:22;;;;;;;11.52;8.10;;;17.20;99.90;;;;;;5114070;28;20165;-78
2022/09/14 04:02:48;;;;;;;11.60;7.28;;;17.20;99.90;;;;;;5094416;28;20485;-78
2022/09/14 04:05:14;;;;;;;12.35;8.15;;;17.20;99.90;;;;;;5092492;28;20028;-79
2022/09/14 04:07:40;;;;;;;13.82;7.18;;;17.20;99.90;;;;;;5092907;28;20048;-75
2022/09/14 04:10:06;;;;;;;12.00;6.75;;;17.20;99.90;;;;;;5071750;28;20028;-79
2022/09/14 04:12:38;;;;;;;8.45;5.97;;;17.20;99.90;;;;;;5093011;28;20054;-80
2022/09/14 04:15:05;;;;;;;9.40;5.95;;;17.20;99.90;;;;;;5102493;28;20042;-81
2022/09/14 04:17:31;;;;;;;9.38;6.20;;;17.20;99.90;;;;;;5109627;28;20038;-81
2022/09/14 04:19:56;;;;;;;8.82;6.57;;;17.20;99.90;;;;;;5093008;28;20027;-80
2022/09/14 04:22:22;;;;;;;9.80;6.30;;;17.20;99.90;;;;;;5100547;28;20028;-81
2022/09/14 04:24:48;;;;;;;10.27;6.25;;;17.20;99.90;;;;;;5099805;28;20032;-81
2022/09/14 04:27:13;;;;;;;8.52;5.50;;;17.20;99.90;;;;;;5104861;28;20043;-81
2022/09/14 04:29:39;;;;;;;7.75;5.25;;;17.20;99.90;;;;;;5092029;28;20520;-81
2022/09/14 04:32:05;;;;;;;15.65;6.05;;;17.20;99.90;;;;;;5091168;28;20084;-81
2022/09/14 04:34:30;;;;;;;6.70;5.72;;;17.20;99.90;;;;;;5091264;28;20787;-81
2022/09/14 04:36:56;;;;;;;11.55;5.72;;;17.20;99.90;;;;;;5101383;28;20032;-81
2022/09/14 04:39:21;;;;;;;7.25;5.80;;;17.20;99.90;;;;;;5091363;28;20047;-81
2022/09/14 04:41:47;;;;;;;9.00;5.55;;;17.30;99.90;;;;;;5092595;28;20057;-81
2022/09/14 04:44:13;;;;;;;10.27;5.70;;;17.20;99.90;;;;;;5082409;28;20048;-78
2022/09/14 04:46:40;;;;;;;7.90;5.68;;;17.20;99.90;;;;;;5053610;28;20021;-79
2022/09/14 04:49:07;;;;;;;9.07;5.55;;;17.30;99.90;;;;;;5065540;28;20392;-80
2022/09/14 04:51:34;;;;;;;10.82;6.20;;;17.30;99.90;;;;;;5053144;28;20864;-77
2022/09/14 04:54:01;;;;;;;9.32;6.25;;;17.20;99.90;;;;;;5052180;28;20025;-80
2022/09/14 04:56:29;;;;;;;8.23;5.65;;;17.20;99.90;;;;;;5051945;28;20067;-79
2022/09/14 04:58:57;;;;;;;8.50;6.22;;;17.20;99.90;;;;;;5051138;28;20036;-79
2022/09/14 05:01:26;;;;;;;8.10;5.90;;;17.20;99.90;;;;;;5042473;28;20025;-73
2022/09/14 05:03:53;;;;;;;9.18;6.82;;;17.20;99.90;;;;;;5067804;28;20032;-80
2022/09/14 05:06:21;;;;;;;10.40;6.65;;;17.20;99.90;;;;;;5080897;28;20052;-79
2022/09/14 05:08:48;;;;;;;10.85;6.20;;;17.20;99.90;;;;;;5071815;28;20469;-78
2022/09/14 05:11:17;;;;;;;7.78;5.88;;;17.20;99.90;;;;;;5077168;28;20046;-76
2022/09/14 05:13:42;;;;;;;9.13;6.07;;;17.30;99.90;;;;;;5090549;28;20415;-78
2022/09/14 05:16:14;;;;;;;10.82;6.25;;;17.30;99.90;;;;;;5081203;28;20058;-81
2022/09/14 05:18:39;;;;;;;12.30;6.90;;;17.50;99.90;;;;;;5075870;28;20021;-79
2022/09/14 05:21:07;;;;;;;11.07;7.07;;;17.50;99.90;;;;;;5076926;28;20469;-80
2022/09/14 05:23:33;;;;;;;11.27;7.43;;;17.40;99.90;;;;;;5069208;28;20572;-83
2022/09/14 05:26:00;;;;;;;11.80;7.30;;;17.40;99.90;;;;;;5071461;28;20032;-77
2022/09/14 05:28:26;;;;;;;10.27;7.80;;;17.40;99.90;;;;;;5070604;28;20047;-78
2022/09/14 05:30:52;;;;;;;16.08;8.60;;;17.50;99.90;;;;;;5070023;28;20084;-73
2022/09/14 05:33:18;;;;;;;12.48;8.82;;;17.70;99.90;;;;;;5070872;28;20025;-81
2022/09/14 05:35:44;;;;;;;9.32;7.57;;;17.70;99.90;;;;;;5072043;28;20063;-77
2022/09/14 05:38:10;;;;;;;13.80;7.50;;;17.80;99.90;;;;;;5081059;28;20028;-78
2022/09/14 05:40:36;;;;;;;15.50;9.48;;;17.70;99.90;;;;;;5073571;28;20058;-81
2022/09/14 05:43:01;;;;;;;9.57;7.70;;;17.70;99.90;;;;;;5083044;28;20385;-83
2022/09/14 05:45:27;;;;;;;16.83;9.43;;;17.70;99.90;;;;;;5081806;28;20059;-76
2022/09/14 05:47:52;;;;;;;10.80;8.32;;;17.60;99.90;;;;;;5069257;28;20039;-75
2022/09/14 05:50:18;;;;;;;16.90;10.05;;;17.60;99.90;;;;;;5051784;28;20029;-73
2022/09/14 05:52:44;;;;;;;13.35;10.25;;;17.60;99.90;;;;;;5061988;28;20028;-75
2022/09/14 05:55:09;;;;;;;11.82;8.65;;;17.70;99.90;;;;;;5068832;28;20121;-72
2022/09/14 05:57:35;;;;;;;13.85;8.75;;;17.70;99.90;;;;;;5069739;28;20028;-77
2022/09/14 06:00:01;;;;;;;11.77;8.48;;;17.70;99.90;;;;;;5076097;28;20426;-74
2022/09/14 06:02:27;;;;;;;12.30;8.00;;;17.70;99.90;;;;;;5080093;28;20090;-75
2022/09/14 06:04:52;;;;;;;10.73;7.55;;;17.80;99.90;;;;;;5064356;28;20036;-75
2022/09/14 06:07:18;;;;;;;12.65;7.65;;;17.80;99.90;;;;;;5062252;28;20433;-76
2022/09/14 06:09:43;;;;;;;10.73;7.47;;;17.90;99.90;;;;;;5080246;28;20040;-76
2022/09/14 06:12:09;;;;;;;9.00;6.45;;;17.90;99.90;;;;;;5074544;28;20059;-76
2022/09/14 06:14:34;;;;;;;9.98;7.07;;;17.90;99.90;;;;;;5071846;28;20627;-75
2022/09/14 06:17:01;;;;;;;7.78;6.93;;;18.00;99.90;;;;;;5073635;28;20112;-75
2022/09/14 06:19:26;;;;;;;8.23;7.05;;;18.10;99.90;;;;;;5068321;28;20044;-75
2022/09/14 06:21:52;;;;;;;10.90;7.10;;;18.10;99.90;;;;;;5062924;28;20028;-76
2022/09/14 06:24:18;;;;;;;8.50;7.28;;;18.20;99.90;;;;;;5072380;28;20036;-73
2022/09/14 06:26:44;;;;;;;10.65;6.50;;;18.30;99.90;;;;;;5068591;28;20104;-75
2022/09/14 06:29:09;;;;;;;10.60;6.18;;;18.30;99.90;;;;;;5074993;28;20032;-76
2022/09/14 06:31:35;;;;;;;8.73;6.30;;;18.40;99.90;;;;;;5075253;28;20047;-79
2022/09/14 06:34:01;;;;;;;6.75;6.07;;;18.50;99.90;;;;;;5061866;28;20043;-76
2022/09/14 06:36:27;;;;;;;7.85;6.10;;;18.60;99.90;;;;;;5074207;28;20024;-77
2022/09/14 06:38:53;;;;;;;8.40;5.60;;;18.70;99.90;;;;;;5076632;28;20029;-80
2022/09/14 06:41:22;;;;;;;7.22;6.10;;;18.70;99.90;;;;;;5071587;28;20039;-76
2022/09/14 06:43:48;;;;;;;7.03;6.30;;;18.80;99.90;;;;;;5056610;28;20076;-74
2022/09/14 06:46:20;;;;;;;8.25;5.75;;;18.90;99.90;;;;;;5085703;28;20511;-74
2022/09/14 06:48:52;;;;;;;8.38;6.03;;;18.90;99.90;;;;;;5090672;28;20081;-74
2022/09/14 06:51:20;;;;;;;7.55;5.40;;;19.00;99.90;;;;;;5092513;28;20495;-77
2022/09/14 06:53:47;;;;;;;11.20;5.95;;;19.00;99.90;;;;;;5093817;28;20020;-73
2022/09/14 06:56:13;;;;;;;6.55;5.57;;;19.00;99.90;;;;;;5093444;28;20051;-73
2022/09/14 06:58:39;;;;;;;10.43;5.28;;;19.20;99.90;;;;;;5092724;28;20040;-73
2022/09/14 07:01:09;;;;;;;10.63;6.05;;;19.20;99.90;;;;;;5094241;28;20084;-73
2022/09/14 07:03:36;;;;;;;11.48;5.60;;;19.20;99.90;;;;;;5090509;28;20078;-74
2022/09/14 07:06:07;;;;;;;7.65;4.97;;;19.30;99.90;;;;;;5068641;28;20028;-72
2022/09/14 07:08:36;;;;;;;6.38;4.25;;;19.40;99.90;;;;;;5090132;28;20499;-73
2022/09/14 07:11:02;;;;;;;5.32;3.88;;;19.50;99.90;;;;;;5092739;28;20028;-73
2022/09/14 07:13:29;;;;;;;5.50;3.83;;;19.70;99.90;;;;;;5082613;28;20036;-74
2022/09/14 07:15:55;;;;;;;4.72;3.28;;;19.80;99.90;;;;;;5092590;28;21257;-73
2022/09/14 07:18:22;;;;;;;4.80;3.70;;;20.00;99.90;;;;;;5092952;28;20040;-74
2022/09/14 07:20:48;;;;;;;8.52;3.58;;;20.10;99.90;;;;;;5091775;28;20016;-74
2022/09/14 07:23:14;;;;;;;6.13;3.60;;;20.20;99.90;;;;;;5088873;28;20032;-73
2022/09/14 07:25:41;;;;;;;7.78;3.30;;;20.40;99.90;;;;;;5091274;28;20027;-75
2022/09/14 07:28:07;;;;;;;4.68;3.00;;;20.50;99.90;;;;;;5071233;28;20425;-74
2022/09/14 07:30:37;;;;;;;7.30;3.10;;;20.60;99.90;;;;;;5089842;28;20419;-73
2022/09/14 07:33:04;;;;;;;3.75;3.22;;;20.70;99.90;;;;;;5093803;28;20065;-73
2022/09/14 07:35:30;;;;;;;3.53;2.70;;;20.80;99.90;;;;;;5090548;28;20496;-72
2022/09/14 07:37:56;;;;;;;7.72;3.20;;;20.90;99.90;;;;;;5092531;28;20184;-74
2022/09/14 07:40:22;;;;;;;4.13;2.80;;;20.90;99.90;;;;;;5092608;28;20059;-73
2022/09/14 07:42:52;;;;;;;5.03;3.30;;;21.00;99.90;;;;;;5092866;28;20028;-73
2022/09/14 07:45:19;;;;;;;8.65;3.20;;;21.00;99.90;;;;;;5087579;28;20044;-80
2022/09/14 07:47:44;;;;;;;4.18;2.63;;;21.10;99.90;;;;;;5073468;28;20070;-74
2022/09/14 07:50:10;;;;;;;3.53;2.85;;;21.10;99.90;;;;;;5097455;28;20512;-74
2022/09/14 07:52:37;;;;;;;4.18;2.72;;;21.20;99.90;;;;;;5090748;28;20074;-73
2022/09/14 07:55:03;;;;;;;6.13;2.80;;;21.30;99.90;;;;;;5092117;28;20036;-74
2022/09/14 07:57:28;;;;;;;7.53;2.85;;;21.40;99.90;;;;;;5087805;28;20085;-74
2022/09/14 07:59:54;;;;;;;4.13;2.47;;;21.50;99.90;;;;;;5092463;28;20431;-74
2022/09/14 08:02:22;;;;;;;7.53;2.95;;;21.60;99.90;;;;;;5081430;28;20035;-76
2022/09/14 08:04:47;;;;;;;5.28;2.47;;;21.80;99.90;;;;;;5092977;28;20027;-82
2022/09/14 08:07:13;;;;;;;6.63;2.78;;;22.00;99.90;;;;;;5092173;28;20055;-82
2022/09/14 08:09:39;;;;;;;8.57;2.97;;;22.10;99.90;;;;;;5091334;28;20084;-83
2022/09/14 08:12:04;;;;;;;4.43;2.90;;;22.20;99.90;;;;;;5092994;28;20032;-80
2022/09/14 08:14:30;;;;;;;5.55;2.50;;;22.20;99.90;;;;;;5090819;28;20028;-82
2022/09/14 08:16:56;;;;;;;4.70;2.60;;;22.30;99.90;;;;;;5092396;28;20077;-78
2022/09/14 08:19:21;;;;;;;7.63;2.55;;;22.40;99.90;;;;;;5091386;28;20032;-76
2022/09/14 08:21:47;;;;;;;5.22;2.47;;;22.50;99.90;;;;;;5091722;28;20028;-81
2022/09/14 08:24:15;;;;;;;5.97;2.83;;;22.70;99.90;;;;;;5090892;28;20024;-82
2022/09/14 08:26:41;;;;;;;5.78;2.50;;;22.80;99.90;;;;;;5091691;28;20051;-81
2022/09/14 08:29:06;;;;;;;4.60;2.33;;;22.90;99.90;;;;;;5092131;28;20121;-81
2022/09/14 08:31:36;;;;;;;5.47;2.70;;;23.00;99.90;;;;;;5088210;28;20487;-82
2022/09/14 08:34:03;;;;;;;6.37;2.73;;;23.20;99.90;;;;;;5092010;28;20107;-81
2022/09/14 08:36:34;;;;;;;6.80;2.20;;;23.20;99.90;;;;;;5080010;28;20169;-83
2022/09/14 08:39:00;;;;;;;5.63;2.22;;;23.40;99.90;;;;;;5079706;28;20489;-83
2022/09/14 08:41:39;;;;;;;4.35;1.95;;;23.40;99.90;;;;;;5085570;28;20139;-82
2022/09/14 08:44:28;;;;;;;6.88;2.40;;;23.50;99.90;;;;;;5090478;28;20040;-81
2022/09/14 08:47:03;;;;;;;3.85;2.47;;;23.50;99.90;;;;;;5093546;28;20039;-79
2022/09/14 08:49:39;;;;;;;4.07;2.67;;;23.50;99.90;;;;;;5092761;28;20067;-82
2022/09/14 08:52:08;;;;;;;4.45;2.25;;;23.60;99.90;;;;;;5088287;28;20047;-81
2022/09/14 08:54:36;;;;;;;8.98;2.47;;;23.50;99.90;;;;;;5083967;28;20028;-80
2022/09/14 08:57:48;;;;;;;5.60;2.42;;;23.50;99.90;;;;;;5091815;28;20081;-81
2022/09/14 09:00:21;;;;;;;5.95;2.13;;;23.60;99.90;;;;;;5084619;28;20028;-81
2022/09/14 09:03:03;;;;;;;6.53;2.20;;;23.80;99.90;;;;;;5091294;28;20092;-81
2022/09/14 09:05:34;;;;;;;5.07;2.20;;;23.90;99.90;;;;;;5086344;28;20031;-81
2022/09/14 09:08:14;;;;;;;5.95;2.45;;;24.00;99.90;;;;;;5086126;28;20028;-81
2022/09/14 09:10:41;;;;;;;4.93;2.38;;;24.00;99.90;;;;;;5088400;28;20111;-81
2022/09/14 09:13:12;;;;;;;3.63;2.40;;;24.00;99.90;;;;;;5085887;28;20032;-81
2022/09/14 09:15:43;;;;;;;3.92;1.83;;;24.00;99.90;;;;;;5091248;28;20028;-81
2022/09/14 09:18:38;;;;;;;7.50;2.63;;;24.10;99.90;;;;;;5090968;28;20101;-81
2022/09/14 09:21:09;;;;;;;8.35;1.98;;;24.20;99.90;;;;;;5077163;28;20044;-82
2022/09/14 09:23:35;;;;;;;3.65;1.85;;;24.20;99.90;;;;;;5090134;28;20028;-81
2022/09/14 09:26:00;;;;;;;5.15;2.10;;;24.40;99.90;;;;;;5089723;28;20469;-81
2022/09/14 09:28:27;;;;;;;3.65;2.30;;;24.50;99.90;;;;;;5090240;28;20123;-82
2022/09/14 09:31:24;;;;;;;8.30;2.38;;;24.70;99.90;;;;;;5091101;28;20085;-82
2022/09/14 09:33:50;;;;;;;4.30;1.90;;;25.00;99.90;;;;;;5093286;28;20400;-80
2022/09/14 09:36:17;;;;;;;3.20;1.95;;;25.20;99.90;;;;;;5094745;28;20020;-81
2022/09/14 09:38:42;;;;;;;6.38;2.42;;;25.40;99.90;;;;;;5092800;28;20039;-81
2022/09/14 09:41:18;;;;;;;5.20;2.28;;;25.60;99.90;;;;;;5094474;28;20028;-84
2022/09/14 09:44:08;;;;;;;6.97;1.75;;;26.00;99.90;;;;;;5092878;28;20098;-81
2022/09/14 09:46:54;;;;;;;9.38;1.95;;;26.20;99.90;;;;;;5080817;28;20040;-82
2022/09/14 09:49:29;;;;;;;7.13;2.47;;;26.30;99.90;;;;;;5097825;28;20537;-80
2022/09/14 09:51:55;;;;;;;4.13;1.85;;;26.30;99.90;;;;;;5095005;28;20493;-81
2022/09/14 09:54:26;;;;;;;5.60;1.95;;;26.30;99.90;;;;;;5094799;28;20032;-82
2022/09/14 09:56:57;;;;;;;3.47;2.28;;;26.40;99.90;;;;;;5093978;28;20085;-81
2022/09/14 09:59:26;;;;;;;5.30;1.92;;;26.40;99.90;;;;;;5093620;28;20032;-77
2022/09/14 10:01:54;;;;;;;6.03;1.98;;;26.30;99.90;;;;;;5094187;28;20435;-81
2022/09/14 10:04:28;;;;;;;5.38;2.00;;;26.20;99.90;;;;;;5094169;28;20477;-81
2022/09/14 10:06:56;;;;;;;4.35;1.90;;;26.20;99.90;;;;;;5094319;28;20508;-80
2022/09/14 10:09:27;;;;;;;3.63;1.98;;;26.10;99.90;;;;;;5093973;28;20043;-78
2022/09/14 10:12:03;;;;;;;3.20;1.88;;;26.10;99.90;;;;;;5093851;28;20095;-80
2022/09/14 10:14:32;;;;;;;5.53;2.50;;;26.10;99.90;;;;;;5086490;28;20039;-81
2022/09/14 10:17:19;;;;;;;4.40;2.17;;;26.20;99.90;;;;;;5085657;28;20020;-81
2022/09/14 10:19:50;;;;;;;4.20;1.90;;;26.40;99.90;;;;;;5094009;28;20031;-81
2022/09/14 10:22:30;;;;;;;7.68;2.00;;;26.50;99.90;;;;;;5094644;28;20461;-82
2022/09/14 10:25:16;;;;;;;3.85;1.48;;;26.60;99.90;;;;;;5089620;28;20477;-79
2022/09/14 10:27:55;;;;;;;5.90;2.15;;;26.60;99.90;;;;;;5076140;28;20058;-81
2022/09/14 10:30:24;;;;;;;3.75;2.25;;;26.60;99.90;;;;;;5093755;28;20036;-82
2022/09/14 10:32:55;;;;;;;6.90;2.00;;;26.70;99.90;;;;;;5094115;28;20469;-81
2022/09/14 10:35:26;;;;;;;5.32;2.20;;;26.80;99.90;;;;;;5094082;28;20056;-81
2022/09/14 10:38:25;;;;;;;4.30;1.95;;;26.90;99.90;;;;;;5093702;28;20024;-81
2022/09/14 10:41:03;;;;;;;4.18;1.77;;;26.90;99.90;;;;;;5053484;28;20048;-81
2022/09/14 10:43:32;;;;;;;4.85;1.90;;;27.00;99.90;;;;;;5093089;28;20028;-81
2022/09/14 10:46:03;;;;;;;4.30;1.83;;;27.10;99.90;;;;;;5093044;28;20032;-80
2022/09/14 10:48:50;;;;;;;5.10;2.05;;;27.10;99.90;;;;;;5091472;28;20036;-81
2022/09/14 10:51:36;;;;;;;3.40;1.85;;;27.10;99.90;;;;;;5093755;28;20511;-81
2022/09/14 10:54:02;;;;;;;4.25;2.25;;;27.10;99.90;;;;;;5089230;28;20082;-80
2022/09/14 10:56:41;;;;;;;2.92;1.77;;;27.30;99.90;;;;;;5092963;28;20036;-78
2022/09/14 10:59:21;;;;;;;3.27;1.93;;;27.30;99.90;;;;;;5093605;28;20039;-80
2022/09/14 11:02:32;;;;;;;3.38;1.92;;;27.40;99.90;;;;;;5092268;28;20269;-80
2022/09/14 11:05:09;;;;;;;4.88;1.90;;;27.60;99.90;;;;;;5080687;28;20107;-82
2022/09/14 11:07:51;;;;;;;4.80;1.70;;;27.60;99.90;;;;;;5092820;28;20036;-79
2022/09/14 11:10:51;;;;;;;2.85;1.60;;;27.60;99.90;;;;;;5093470;28;20420;-81
2022/09/14 11:13:38;;;;;;;6.47;2.28;;;27.60;99.90;;;;;;5089819;28;20500;-82
2022/09/14 11:16:22;;;;;;;4.68;2.13;;;27.80;99.90;;;;;;5092801;28;20024;-82
2022/09/14 11:19:06;;;;;;;5.82;2.20;;;27.90;99.90;;;;;;5093716;28;20070;-79
2022/09/14 11:21:34;;;;;;;4.93;2.08;;;28.00;99.90;;;;;;5088309;28;20504;-82
2022/09/14 11:24:22;;;;;;;8.13;2.17;;;28.20;99.90;;;;;;5094226;28;20031;-80
2022/09/14 11:26:57;;;;;;;6.38;2.17;;;28.40;99.90;;;;;;5092044;28;20074;-81
2022/09/14 11:29:30;;;;;;;2.80;1.90;;;28.60;99.90;;;;;;5092438;28;20036;-81
2022/09/14 11:32:12;;;;;;;2.15;1.58;;;28.70;99.90;;;;;;5092845;28;20024;-82
2022/09/14 11:35:09;;;;;;;4.65;1.67;;;28.80;99.90;;;;;;5091174;28;20039;-82
2022/09/14 11:37:40;;;;;;;6.22;1.73;;;29.10;99.70;;;;;;5074067;28;20047;-82
2022/09/14 11:40:19;;;;;;;5.47;1.75;;;29.20;99.50;;;;;;5091918;28;20043;-82
2022/09/14 11:42:54;;;;;;;3.70;1.50;;;29.40;98.60;;;;;;5093029;28;20399;-81
2022/09/14 11:45:28;;;;;;;5.10;1.65;;;29.60;98.20;;;;;;5091490;28;20056;-82
2022/09/14 11:48:30;;;;;;;5.63;1.70;;;29.70;97.70;;;;;;5092621;28;20032;-83
2022/09/14 11:51:10;;;;;;;3.88;1.70;;;29.70;97.40;;;;;;5088906;28;20055;-84
2022/09/14 11:53:36;;;;;;;3.17;1.55;;;29.70;96.80;;;;;;5093472;28;20060;-83
2022/09/14 11:56:02;;;;;;;4.32;1.52;;;29.70;96.10;;;;;;5088445;28;20063;-84
2022/09/14 11:58:31;;;;;;;4.00;1.73;;;29.60;95.90;;;;;;5074066;28;20036;-77
2022/09/14 12:01:24;;;;;;;5.10;1.75;;;29.40;95.90;;;;;;5092527;28;20023;-85
2022/09/14 12:03:55;;;;;;;4.43;1.80;;;29.20;96.10;;;;;;5088295;28;20048;-79
2022/09/14 12:06:29;;;;;;;9.93;1.92;;;28.90;96.50;;;;;;5086012;28;20075;-84
2022/09/14 12:09:23;;;;;;;2.97;1.92;;;28.60;96.40;;;;;;5094329;28;20039;-84
2022/09/14 12:11:55;;;;;;;4.05;1.85;;;28.40;96.60;;;;;;5091349;28;20023;-84
2022/09/14 12:14:27;;;;;;;3.22;1.60;;;28.20;96.90;;;;;;5091536;28;20050;-85
2022/09/14 12:17:04;;;;;;;7.68;1.80;;;28.00;97.40;;;;;;5089442;28;20016;-84
2022/09/14 12:19:31;;;;;;;3.25;2.00;;;27.80;97.70;;;;;;5092057;28;20066;-77
2022/09/14 12:22:17;;;;;;;4.40;1.75;;;27.60;97.90;;;;;;5092534;28;20039;-85
2022/09/14 12:24:43;;;;;;;8.50;1.77;;;27.60;98.40;;;;;;5075042;28;20483;-85
2022/09/14 12:27:36;;;;;;;5.05;1.60;;;27.50;98.50;;;;;;5096092;28;20131;-79
2022/09/14 12:30:32;;;;;;;4.43;1.80;;;27.40;98.70;;;;;;5082036;28;20097;-77
2022/09/14 12:32:58;;;;;;;5.32;2.00;;;27.30;98.70;;;;;;5063081;28;20399;-80
2022/09/14 12:35:33;;;;;;;5.25;1.70;;;27.10;98.90;;;;;;5091971;28;20511;-80
2022/09/14 12:38:19;;;;;;;8.07;2.40;;;26.90;99.40;;;;;;5082962;28;20098;-80
2022/09/14 12:40:45;;;;;;;3.17;1.60;;;26.70;99.90;;;;;;5089430;28;20088;-80
2022/09/14 12:43:32;;;;;;;8.77;2.33;;;26.40;99.90;;;;;;5091040;28;20438;-79
2022/09/14 12:46:18;;;;;;;6.45;2.03;;;25.90;99.90;;;;;;5090604;28;20044;-80
2022/09/14 12:48:47;;;;;;;4.30;2.10;;;25.50;99.90;;;;;;5090626;28;20042;-80
2022/09/14 12:51:18;;;;;;;5.00;2.38;;;25.20;99.90;;;;;;5091442;28;20035;-80
2022/09/14 12:53:46;;;;;;;9.68;2.00;;;24.90;99.90;;;;;;5090209;28;20048;-79
2022/09/14 12:56:19;;;;;;;3.13;1.88;;;24.50;99.90;;;;;;5090847;28;20051;-79
2022/09/14 12:59:03;;;;;;;7.20;1.85;;;24.10;99.90;;;;;;5083522;28;20465;-79
2022/09/14 13:01:55;;;;;;;4.13;1.77;;;23.60;99.90;;;;;;5089519;28;20032;-74
2022/09/14 13:04:28;;;;;;;7.65;2.05;;;23.10;99.90;;;;;;5049110;28;20060;-79
2022/09/14 13:06:56;;;;;;;5.82;2.17;;;22.60;99.90;;;;;;5091006;28;20358;-77